Time;durP1;ratioP1;P1;durP2;ratioP2;P2;SDS_P1;SDS_P2;PMS_P1;PMS_P2;Temp;Humidity;BMP_temperature;BMP_pressure;BME280_temperature;BME280_humidity;BME280_pressure;Samples;Min_cycle;Max_cycle;Signal;HPM_P1;HPM_P2
2022/06/03 00:00:33;;;;;;;10.65;7.50;;;15.60;95.50;;;;;;5055676;28;20037;-68
2022/06/03 00:03:47;;;;;;;8.32;6.00;;;15.50;95.60;;;;;;5056164;28;20433;-68
2022/06/03 00:06:43;;;;;;;8.25;6.03;;;15.40;95.70;;;;;;5053085;28;20409;-69
2022/06/03 00:09:44;;;;;;;8.40;6.80;;;15.30;96.00;;;;;;5056507;28;20055;-69
2022/06/03 00:12:32;;;;;;;10.10;5.93;;;15.40;96.00;;;;;;5052429;28;20037;-68
2022/06/03 00:15:19;;;;;;;10.13;6.90;;;15.50;95.80;;;;;;5053904;28;20051;-68
2022/06/03 00:17:58;;;;;;;11.70;7.45;;;15.30;96.00;;;;;;5056022;28;20025;-68
2022/06/03 00:20:48;;;;;;;10.02;6.55;;;15.30;96.10;;;;;;5054207;28;20056;-68
2022/06/03 00:23:42;;;;;;;10.98;6.47;;;15.20;96.20;;;;;;5055116;28;20045;-68
2022/06/03 00:26:34;;;;;;;8.30;6.93;;;15.00;96.30;;;;;;5052976;28;20021;-70
2022/06/03 00:29:38;;;;;;;11.25;6.57;;;15.00;96.60;;;;;;5052919;28;20059;-68
2022/06/03 00:32:07;;;;;;;9.20;6.72;;;15.10;96.50;;;;;;5037962;28;20438;-68
2022/06/03 00:34:48;;;;;;;8.15;6.65;;;15.00;96.50;;;;;;5053260;28;20033;-69
2022/06/03 00:37:48;;;;;;;9.13;6.82;;;14.90;96.50;;;;;;5054880;28;20318;-69
2022/06/03 00:40:40;;;;;;;8.80;6.90;;;14.70;96.40;;;;;;5053245;28;20043;-69
2022/06/03 00:43:24;;;;;;;9.98;7.57;;;14.50;96.50;;;;;;5051862;28;20159;-69
2022/06/03 00:45:59;;;;;;;8.90;6.30;;;14.40;96.60;;;;;;5051549;28;20033;-68
2022/06/03 00:48:43;;;;;;;8.32;6.68;;;14.40;96.70;;;;;;5048519;28;20044;-68
2022/06/03 00:51:09;;;;;;;;;;;14.20;96.60;;;;;;5054327;28;20025;-68
2022/06/03 00:54:02;;;;;;;9.48;7.00;;;14.10;96.40;;;;;;5054587;28;19935;-68
2022/06/03 00:56:59;;;;;;;11.60;8.18;;;13.90;96.30;;;;;;5053901;28;20025;-68
2022/06/03 00:59:59;;;;;;;8.48;6.32;;;13.80;96.10;;;;;;5049945;28;20031;-69
2022/06/03 01:02:46;;;;;;;9.25;6.88;;;13.70;95.90;;;;;;5053968;28;20033;-68
2022/06/03 01:05:21;;;;;;;13.45;7.57;;;13.70;96.00;;;;;;5052853;28;20112;-68
2022/06/03 01:08:24;;;;;;;9.23;7.13;;;13.60;95.70;;;;;;5052608;28;20078;-68
2022/06/03 01:11:14;;;;;;;8.85;6.82;;;13.50;95.80;;;;;;5045119;28;20111;-68
2022/06/03 01:13:43;;;;;;;9.70;7.18;;;13.40;95.30;;;;;;5050664;28;20033;-67
2022/06/03 01:16:21;;;;;;;10.90;7.45;;;13.40;95.30;;;;;;5055345;28;20021;-68
2022/06/03 01:18:56;;;;;;;9.30;7.03;;;13.40;95.30;;;;;;5053189;28;20021;-67
2022/06/03 01:21:48;;;;;;;9.85;7.22;;;13.30;95.10;;;;;;5054055;28;20106;-67
2022/06/03 01:24:24;;;;;;;10.13;7.18;;;13.30;94.80;;;;;;5052072;28;20399;-67
2022/06/03 01:26:50;;;;;;;10.18;6.80;;;13.20;94.90;;;;;;5044407;28;20090;-68
2022/06/03 01:29:46;;;;;;;10.25;7.32;;;13.10;94.60;;;;;;5054517;28;20132;-68
2022/06/03 01:32:26;;;;;;;8.05;6.35;;;13.10;95.00;;;;;;5048822;28;20040;-68
2022/06/03 01:35:54;;;;;;;8.18;6.78;;;13.00;94.60;;;;;;5052000;28;20017;-68
2022/06/03 01:38:48;;;;;;;8.40;6.95;;;12.90;94.40;;;;;;5051641;28;20032;-68
2022/06/03 01:41:25;;;;;;;9.85;7.60;;;12.90;93.70;;;;;;5053110;28;20434;-68
2022/06/03 01:44:00;;;;;;;13.60;8.23;;;12.90;93.90;;;;;;5052289;28;20028;-68
2022/06/03 01:46:38;;;;;;;8.18;6.50;;;12.90;93.60;;;;;;5053545;28;20021;-68
2022/06/03 01:49:52;;;;;;;9.02;6.45;;;13.00;93.80;;;;;;5050726;28;20036;-68
2022/06/03 01:52:49;;;;;;;13.43;8.18;;;13.00;93.80;;;;;;5046577;28;20032;-68
2022/06/03 01:55:45;;;;;;;8.52;7.25;;;13.00;93.70;;;;;;5015105;28;20040;-68
2022/06/03 01:58:42;;;;;;;10.85;7.00;;;12.90;93.30;;;;;;5042478;28;20033;-67
2022/06/03 02:01:20;;;;;;;9.73;6.50;;;12.90;93.50;;;;;;5045935;28;20040;-67
2022/06/03 02:04:01;;;;;;;9.68;6.95;;;12.90;93.70;;;;;;5051873;28;20096;-68
2022/06/03 02:07:04;;;;;;;9.07;6.82;;;13.00;93.70;;;;;;5041686;28;20104;-67
2022/06/03 02:09:54;;;;;;;13.27;6.85;;;13.00;93.50;;;;;;5035792;28;20033;-67
2022/06/03 02:12:29;;;;;;;8.32;6.53;;;12.90;93.20;;;;;;5047913;28;20040;-67
2022/06/03 02:15:43;;;;;;;9.52;6.05;;;12.90;92.90;;;;;;5052817;28;20485;-67
2022/06/03 02:18:37;;;;;;;8.18;6.05;;;13.00;93.10;;;;;;5054048;28;20112;-68
2022/06/03 02:21:09;;;;;;;6.82;5.07;;;12.90;92.90;;;;;;5049259;28;20021;-68
2022/06/03 02:24:07;;;;;;;8.38;5.57;;;12.90;92.40;;;;;;5053441;28;20421;-67
2022/06/03 02:26:51;;;;;;;10.65;6.07;;;12.90;92.10;;;;;;5047731;28;20497;-67
2022/06/03 02:32:28;;;;;;;7.85;6.18;;;13.00;92.00;;;;;;5046660;28;20060;-67
2022/06/03 02:35:19;;;;;;;7.35;5.60;;;12.90;92.20;;;;;;5052506;28;20303;-68
2022/06/03 02:38:16;;;;;;;8.10;5.57;;;12.80;92.40;;;;;;5023412;28;20448;-68
2022/06/03 02:41:11;;;;;;;8.98;6.78;;;12.80;92.30;;;;;;5046326;28;20056;-68
2022/06/03 02:43:47;;;;;;;6.65;5.43;;;12.70;92.60;;;;;;5050443;28;20334;-69
2022/06/03 02:46:29;;;;;;;8.13;6.38;;;12.70;92.30;;;;;;5058811;28;20017;-68
2022/06/03 02:49:16;;;;;;;9.30;5.88;;;12.70;92.00;;;;;;5058939;28;20024;-68
2022/06/03 02:52:16;;;;;;;9.80;6.05;;;12.80;91.30;;;;;;5060301;28;20391;-68
2022/06/03 02:55:07;;;;;;;11.00;7.13;;;12.70;91.40;;;;;;5059561;28;20387;-69
2022/06/03 02:58:02;;;;;;;8.70;6.68;;;12.70;90.80;;;;;;5057905;28;20158;-69
2022/06/03 03:00:31;;;;;;;8.32;6.18;;;12.70;90.60;;;;;;5058507;28;20055;-68
2022/06/03 03:03:00;;;;;;;8.35;6.93;;;12.60;90.40;;;;;;5056133;28;20029;-68
2022/06/03 03:05:53;;;;;;;9.35;8.00;;;12.60;90.00;;;;;;5056055;28;20025;-68
2022/06/03 03:08:46;;;;;;;9.70;7.43;;;12.70;89.70;;;;;;5045231;28;20036;-68
2022/06/03 03:11:48;;;;;;;10.27;7.47;;;12.70;90.00;;;;;;5057081;28;20028;-68
2022/06/03 03:14:41;;;;;;;8.75;6.68;;;12.60;90.20;;;;;;5053840;28;20044;-69
2022/06/03 03:17:31;;;;;;;10.90;8.30;;;12.50;90.10;;;;;;5058435;28;20448;-67
2022/06/03 03:20:31;;;;;;;9.27;6.72;;;12.40;90.40;;;;;;5053665;28;20036;-70
2022/06/03 03:23:58;;;;;;;10.88;8.05;;;12.40;90.10;;;;;;5056488;28;20124;-69
2022/06/03 03:26:48;;;;;;;10.30;7.38;;;12.40;89.60;;;;;;5045371;28;20087;-68
2022/06/03 03:29:48;;;;;;;10.95;8.18;;;12.40;89.20;;;;;;5048660;28;20051;-69
2022/06/03 03:32:19;;;;;;;9.65;7.07;;;12.50;89.30;;;;;;5059168;28;20108;-68
2022/06/03 03:35:10;;;;;;;9.43;6.80;;;12.60;89.40;;;;;;5059075;28;20025;-68
2022/06/03 03:38:10;;;;;;;9.07;7.05;;;12.70;90.00;;;;;;5059464;28;20029;-68
2022/06/03 03:41:13;;;;;;;10.43;7.07;;;12.80;90.30;;;;;;5059196;28;20033;-67
2022/06/03 03:43:44;;;;;;;9.35;7.00;;;12.90;90.60;;;;;;5057583;28;20033;-68
2022/06/03 03:46:46;;;;;;;7.57;6.28;;;13.00;91.20;;;;;;5060258;28;20491;-68
2022/06/03 03:49:46;;;;;;;8.02;6.32;;;13.10;91.40;;;;;;5058257;28;20029;-69
2022/06/03 03:52:44;;;;;;;7.40;6.28;;;13.20;92.10;;;;;;5056010;28;20093;-69
2022/06/03 03:55:14;;;;;;;7.13;5.55;;;13.30;93.40;;;;;;5056986;28;20017;-68
2022/06/03 03:58:14;;;;;;;7.50;5.78;;;13.40;93.50;;;;;;5045175;28;20040;-68
2022/06/03 04:00:45;;;;;;;7.50;5.38;;;13.50;94.20;;;;;;5051962;28;20025;-68
2022/06/03 04:03:26;;;;;;;7.97;5.43;;;13.50;94.60;;;;;;5042634;28;20369;-67
2022/06/03 04:06:29;;;;;;;9.13;6.20;;;13.50;94.70;;;;;;5051746;28;20075;-68
2022/06/03 04:09:25;;;;;;;8.45;5.78;;;13.60;94.50;;;;;;5046550;28;20025;-68
2022/06/03 04:12:25;;;;;;;11.38;6.68;;;13.70;94.30;;;;;;5050584;28;20032;-68
2022/06/03 04:15:09;;;;;;;11.95;6.63;;;13.70;94.40;;;;;;5053246;28;20360;-68
2022/06/03 04:17:44;;;;;;;9.45;6.20;;;13.90;94.30;;;;;;5053687;28;20702;-68
2022/06/03 04:20:28;;;;;;;8.25;6.07;;;14.00;94.60;;;;;;5055193;28;20037;-68
2022/06/03 04:23:39;;;;;;;8.40;5.82;;;14.10;95.00;;;;;;5055367;28;20060;-68
2022/06/03 04:26:40;;;;;;;9.23;6.00;;;14.20;95.10;;;;;;5046547;28;20021;-67
2022/06/03 04:29:43;;;;;;;9.80;5.55;;;14.30;95.40;;;;;;5050438;28;20116;-69
2022/06/03 04:32:12;;;;;;;7.57;4.80;;;14.40;95.40;;;;;;5046245;28;20474;-68
2022/06/03 04:34:59;;;;;;;9.00;5.75;;;14.60;95.60;;;;;;5055915;28;20036;-68
2022/06/03 04:38:00;;;;;;;8.15;5.80;;;14.60;96.20;;;;;;5045914;28;20072;-68
2022/06/03 04:40:26;;;;;;;7.72;4.65;;;14.60;96.30;;;;;;5041441;28;20128;-68
2022/06/03 04:43:13;;;;;;;6.80;5.40;;;14.50;96.20;;;;;;5041799;28;20033;-68
2022/06/03 04:46:04;;;;;;;6.25;4.65;;;14.60;96.10;;;;;;5053721;28;20064;-68
2022/06/03 04:48:52;;;;;;;8.88;5.47;;;14.60;95.90;;;;;;5050858;28;20104;-68
2022/06/03 04:51:36;;;;;;;7.50;5.75;;;14.60;96.10;;;;;;5049366;28;20044;-68
2022/06/03 04:54:20;;;;;;;7.40;5.93;;;14.50;95.90;;;;;;5051887;28;20025;-68
2022/06/03 04:57:22;;;;;;;7.40;5.38;;;14.40;96.00;;;;;;5052466;28;20147;-68
2022/06/03 05:00:25;;;;;;;8.55;6.60;;;14.40;96.00;;;;;;5052145;28;20491;-68
2022/06/03 05:03:21;;;;;;;8.65;6.32;;;14.40;95.90;;;;;;5048884;28;20485;-68
2022/06/03 05:06:35;;;;;;;6.93;5.70;;;14.50;96.10;;;;;;5041894;28;20033;-68
2022/06/03 05:09:26;;;;;;;10.40;6.53;;;14.60;96.40;;;;;;5051231;28;20858;-68
2022/06/03 05:12:09;;;;;;;7.28;5.55;;;14.70;96.40;;;;;;5053829;28;20082;-68
2022/06/03 05:15:12;;;;;;;7.50;5.53;;;14.80;96.50;;;;;;5035797;28;20108;-68
2022/06/03 05:17:50;;;;;;;8.43;6.57;;;14.90;96.40;;;;;;5040424;28;20028;-68
2022/06/03 05:20:34;;;;;;;8.57;5.78;;;15.00;96.90;;;;;;5054729;28;20025;-68
2022/06/03 05:23:17;;;;;;;;;;;15.20;97.00;;;;;;5051906;28;20021;-69
2022/06/03 05:26:13;;;;;;;8.82;6.35;;;15.40;97.40;;;;;;5055444;28;19920;-68
2022/06/03 05:28:45;;;;;;;8.05;6.15;;;15.60;97.50;;;;;;5051962;28;20033;-68
2022/06/03 05:31:28;;;;;;;8.02;5.38;;;15.60;97.30;;;;;;5053462;28;20039;-68
2022/06/03 05:34:16;;;;;;;8.30;5.65;;;15.70;97.30;;;;;;5054280;28;20036;-69
2022/06/03 05:36:51;;;;;;;6.82;5.28;;;15.80;97.30;;;;;;5055227;28;20037;-68
2022/06/03 05:39:35;;;;;;;7.53;5.50;;;16.00;97.40;;;;;;5053411;28;20472;-68
2022/06/03 05:42:27;;;;;;;7.88;5.65;;;16.20;97.20;;;;;;5053997;28;20033;-69
2022/06/03 05:45:11;;;;;;;7.53;5.13;;;16.30;97.10;;;;;;5042105;28;20055;-68
2022/06/03 05:48:01;;;;;;;8.23;5.38;;;16.50;97.10;;;;;;5054263;28;20033;-68
2022/06/03 05:50:44;;;;;;;8.10;5.22;;;16.60;96.90;;;;;;5052872;28;20351;-68
2022/06/03 05:53:25;;;;;;;9.90;5.78;;;16.70;96.80;;;;;;5054699;28;20036;-68
2022/06/03 05:56:16;;;;;;;7.32;5.63;;;16.90;96.80;;;;;;5046946;28;20022;-68
2022/06/03 05:59:00;;;;;;;7.60;5.15;;;17.10;96.70;;;;;;5052582;28;20082;-68
2022/06/03 06:01:37;;;;;;;7.40;5.30;;;17.30;96.60;;;;;;5051334;28;20033;-68
2022/06/03 06:04:11;;;;;;;8.20;4.90;;;17.40;96.40;;;;;;5034265;28;20025;-68
2022/06/03 06:07:17;;;;;;;7.90;5.18;;;17.60;96.20;;;;;;5042041;28;20056;-67
2022/06/03 06:10:08;;;;;;;16.48;5.50;;;17.70;95.90;;;;;;5054075;28;20024;-67
2022/06/03 06:12:46;;;;;;;6.35;4.50;;;17.90;95.60;;;;;;5052341;28;20045;-68
2022/06/03 06:15:28;;;;;;;8.85;4.88;;;18.00;95.70;;;;;;5054635;28;20017;-70
2022/06/03 06:18:21;;;;;;;7.00;4.18;;;18.10;95.50;;;;;;5054271;28;20115;-69
2022/06/03 06:21:17;;;;;;;7.72;4.43;;;18.20;95.30;;;;;;5052905;28;20029;-69
2022/06/03 06:23:45;;;;;;;6.85;4.20;;;18.40;94.90;;;;;;5053068;28;20078;-69
2022/06/03 06:26:35;;;;;;;5.82;4.10;;;18.50;94.50;;;;;;5053779;28;20437;-69
2022/06/03 06:29:40;;;;;;;7.13;4.50;;;18.60;94.50;;;;;;5052508;28;20048;-68
2022/06/03 06:32:58;;;;;;;6.57;4.75;;;18.60;94.20;;;;;;5052169;28;20032;-68
2022/06/03 06:35:48;;;;;;;7.47;4.95;;;18.50;93.60;;;;;;5050447;28;20040;-69
2022/06/03 06:38:32;;;;;;;10.15;4.80;;;18.50;93.50;;;;;;5053495;28;20607;-68
2022/06/03 06:41:37;;;;;;;8.02;4.90;;;18.50;93.60;;;;;;5052996;28;20041;-69
2022/06/03 06:44:12;;;;;;;;;;;18.60;93.40;;;;;;5051005;28;20108;-68
2022/06/03 06:47:01;;;;;;;6.97;4.85;;;18.60;93.50;;;;;;5053080;28;19913;-68
2022/06/03 06:50:00;;;;;;;8.85;5.18;;;18.70;93.40;;;;;;5034613;28;20160;-68
2022/06/03 06:52:47;;;;;;;7.28;5.32;;;18.70;93.10;;;;;;5052846;28;20121;-68
2022/06/03 06:55:29;;;;;;;7.22;5.40;;;18.60;93.20;;;;;;5052055;28;20039;-68
2022/06/03 06:58:26;;;;;;;7.47;5.72;;;18.60;93.20;;;;;;5052074;28;20029;-68
2022/06/03 07:00:53;;;;;;;11.40;5.60;;;18.60;93.40;;;;;;5053338;28;20103;-68
2022/06/03 07:03:27;;;;;;;7.40;5.55;;;18.80;93.00;;;;;;5052183;28;20029;-68
2022/06/03 07:06:13;;;;;;;6.90;4.93;;;19.00;92.50;;;;;;5053867;28;20025;-68
2022/06/03 07:08:46;;;;;;;8.35;5.93;;;19.10;92.10;;;;;;5052744;28;20029;-69
2022/06/03 07:11:24;;;;;;;7.30;5.10;;;19.20;92.00;;;;;;5054062;28;20025;-68
2022/06/03 07:14:21;;;;;;;6.85;5.18;;;19.40;91.70;;;;;;5051794;28;20036;-68
2022/06/03 07:20:00;;;;;;;7.07;5.05;;;19.40;91.80;;;;;;5048500;28;20036;-68
2022/06/03 07:22:40;;;;;;;8.98;4.40;;;19.60;91.50;;;;;;5053154;28;20017;-68
2022/06/03 07:25:23;;;;;;;6.45;4.13;;;20.00;90.20;;;;;;5048882;28;20032;-68
2022/06/03 07:28:00;;;;;;;5.60;4.00;;;21.20;87.80;;;;;;5051809;28;20909;-68
2022/06/03 07:30:49;;;;;;;6.28;4.28;;;22.80;82.90;;;;;;5053903;28;20025;-68
2022/06/03 07:33:34;;;;;;;5.88;3.55;;;23.70;79.50;;;;;;5056426;28;20043;-68
2022/06/03 07:36:30;;;;;;;7.88;4.00;;;24.20;78.40;;;;;;5056913;28;20052;-68
2022/06/03 07:38:56;;;;;;;6.45;3.63;;;24.50;77.60;;;;;;5055746;28;20037;-69
2022/06/03 07:41:44;;;;;;;6.13;3.20;;;25.30;75.90;;;;;;5057206;28;20317;-68
2022/06/03 07:44:24;;;;;;;6.95;3.15;;;25.60;75.20;;;;;;5055421;28;20032;-68
2022/06/03 07:47:00;;;;;;;6.70;3.17;;;26.10;74.00;;;;;;5054887;28;20457;-68
2022/06/03 07:49:29;;;;;;;4.60;2.88;;;26.30;73.10;;;;;;5055243;28;20082;-68
2022/06/03 07:52:37;;;;;;;6.30;3.53;;;26.00;73.50;;;;;;5056707;28;20041;-68
2022/06/03 07:55:12;;;;;;;6.97;3.42;;;25.40;74.90;;;;;;5056727;28;20044;-68
2022/06/03 07:57:37;;;;;;;5.70;2.95;;;25.00;76.30;;;;;;5054841;28;20104;-68
2022/06/03 08:00:12;;;;;;;4.80;3.03;;;25.10;76.60;;;;;;5057040;28;20109;-68
2022/06/03 08:02:38;;;;;;;6.20;3.55;;;25.60;75.10;;;;;;5055618;28;20036;-68
2022/06/03 08:05:07;;;;;;;5.57;3.05;;;25.50;75.10;;;;;;5056938;28;20025;-67
2022/06/03 08:10:58;;;;;;;6.00;3.10;;;25.70;74.90;;;;;;5056922;28;20523;-68
2022/06/03 08:13:43;;;;;;;6.03;3.20;;;26.20;73.40;;;;;;5054967;28;20059;-68
2022/06/03 08:16:25;;;;;;;6.07;2.95;;;26.00;74.20;;;;;;5055975;28;20025;-68
2022/06/03 08:18:55;;;;;;;5.82;3.03;;;26.10;74.60;;;;;;5036955;28;20021;-68
2022/06/03 08:21:52;;;;;;;5.95;3.50;;;25.80;74.90;;;;;;5037917;28;20028;-67
2022/06/03 08:24:24;;;;;;;6.45;3.75;;;25.70;76.50;;;;;;5056746;28;20485;-68
2022/06/03 08:27:05;;;;;;;6.70;2.90;;;26.40;73.80;;;;;;5054797;28;20064;-68
2022/06/03 08:29:49;;;;;;;7.22;3.13;;;26.90;74.10;;;;;;5056940;28;20021;-68
2022/06/03 08:32:46;;;;;;;6.22;3.40;;;26.40;74.00;;;;;;5046184;28;20440;-68
2022/06/03 08:35:19;;;;;;;5.10;3.40;;;25.40;76.40;;;;;;5039244;28;20029;-68
2022/06/03 08:37:58;;;;;;;5.35;3.25;;;24.60;78.40;;;;;;5054740;28;20060;-68
2022/06/03 08:40:36;;;;;;;6.68;3.08;;;25.10;78.60;;;;;;5055447;28;20049;-68
2022/06/03 08:43:28;;;;;;;5.70;3.38;;;26.40;76.20;;;;;;5055031;28;20440;-68
2022/06/03 08:46:33;;;;;;;8.10;3.35;;;27.40;72.60;;;;;;5054279;28;20039;-68
2022/06/03 08:49:10;;;;;;;6.03;3.08;;;27.70;72.40;;;;;;5055166;28;20326;-68
2022/06/03 08:51:46;;;;;;;4.68;2.40;;;28.60;70.60;;;;;;5054217;28;20029;-68
2022/06/03 08:54:32;;;;;;;4.45;2.60;;;29.60;69.50;;;;;;5055181;28;20328;-68
2022/06/03 08:57:07;;;;;;;5.35;2.70;;;31.20;67.10;;;;;;5054875;28;20130;-68
2022/06/03 08:59:57;;;;;;;5.63;2.60;;;31.40;64.70;;;;;;5055064;28;20095;-68
2022/06/03 09:03:04;;;;;;;4.85;2.70;;;30.50;65.80;;;;;;5053299;28;20021;-68
2022/06/03 09:05:47;;;;;;;5.95;2.75;;;29.70;67.20;;;;;;5053829;28;20069;-68
2022/06/03 09:08:36;;;;;;;5.10;2.70;;;29.30;69.20;;;;;;5050093;28;20021;-71
2022/06/03 09:11:29;;;;;;;4.72;2.30;;;29.20;69.80;;;;;;5053976;28;20448;-70
2022/06/03 09:14:00;;;;;;;6.20;3.20;;;29.20;69.00;;;;;;5053839;28;20306;-69
2022/06/03 09:16:29;;;;;;;6.00;2.70;;;29.70;69.10;;;;;;5054450;28;21608;-69
2022/06/03 09:19:09;;;;;;;5.38;3.08;;;29.60;68.50;;;;;;5055900;28;20032;-69
2022/06/03 09:21:41;;;;;;;6.03;3.15;;;28.60;71.00;;;;;;5053815;28;20998;-69
2022/06/03 09:24:14;;;;;;;5.32;3.28;;;28.00;73.90;;;;;;5053982;28;20025;-69
2022/06/03 09:26:45;;;;;;;8.73;3.30;;;28.60;72.20;;;;;;5054408;28;20076;-69
2022/06/03 09:29:13;;;;;;;5.63;3.20;;;28.50;71.70;;;;;;5034605;28;20029;-69
2022/06/03 09:31:54;;;;;;;6.53;3.13;;;28.10;72.50;;;;;;5037215;28;20029;-68
2022/06/03 09:34:25;;;;;;;5.05;3.22;;;28.10;72.90;;;;;;5055589;28;20056;-69
2022/06/03 09:36:51;;;;;;;6.68;3.50;;;28.80;71.10;;;;;;5053380;28;20021;-69
2022/06/03 09:39:37;;;;;;;8.75;3.10;;;29.80;70.30;;;;;;5054321;28;20037;-68
2022/06/03 09:42:05;;;;;;;5.25;3.25;;;30.40;68.70;;;;;;5052986;28;20029;-69
2022/06/03 09:44:32;;;;;;;5.47;3.30;;;30.30;68.50;;;;;;5055253;28;20032;-68
2022/06/03 09:47:03;;;;;;;5.85;3.50;;;30.80;67.00;;;;;;5053605;28;20033;-68
2022/06/03 09:49:31;;;;;;;6.10;3.22;;;30.30;67.60;;;;;;5055160;28;20072;-68
2022/06/03 09:52:01;;;;;;;4.78;2.83;;;29.80;68.40;;;;;;5054056;28;20025;-68
2022/06/03 09:54:31;;;;;;;8.65;3.45;;;29.80;69.20;;;;;;5051583;28;20374;-68
2022/06/03 09:57:29;;;;;;;8.10;3.40;;;30.70;67.10;;;;;;5052741;28;20048;-69
2022/06/03 09:59:59;;;;;;;6.15;3.10;;;31.30;64.80;;;;;;5055054;28;20104;-68
2022/06/03 10:02:26;;;;;;;9.50;3.15;;;31.50;64.90;;;;;;5053803;28;20021;-68
2022/06/03 10:04:54;;;;;;;9.82;3.40;;;31.60;64.70;;;;;;5053959;28;20059;-68
2022/06/03 10:07:25;;;;;;;11.13;3.60;;;31.20;64.90;;;;;;5053517;28;20036;-68
2022/06/03 10:12:52;;;;;;;6.32;3.33;;;30.70;65.30;;;;;;5052626;28;20118;-68
2022/06/03 10:15:38;;;;;;;6.07;3.40;;;30.20;66.30;;;;;;5053684;28;20112;-67
2022/06/03 10:18:10;;;;;;;6.47;3.08;;;30.20;66.70;;;;;;5053043;28;20025;-67
2022/06/03 10:20:36;;;;;;;5.32;3.03;;;30.40;67.00;;;;;;5054313;28;20029;-68
2022/06/03 10:23:04;;;;;;;6.40;3.08;;;30.20;66.10;;;;;;5051613;28;20028;-68
2022/06/03 10:25:31;;;;;;;6.38;3.17;;;29.70;67.50;;;;;;5053028;28;20436;-68
2022/06/03 10:28:03;;;;;;;5.35;3.17;;;30.10;67.40;;;;;;5051721;28;20258;-67
2022/06/03 10:30:31;;;;;;;5.03;2.88;;;31.20;65.50;;;;;;5053734;28;20083;-68
2022/06/03 10:32:57;;;;;;;5.07;2.67;;;32.10;63.90;;;;;;5051947;28;20360;-67
2022/06/03 10:35:28;;;;;;;5.85;2.92;;;32.20;64.00;;;;;;5053681;28;20029;-68
2022/06/03 10:37:57;;;;;;;6.95;3.00;;;32.40;63.60;;;;;;5050815;28;20433;-67
2022/06/03 10:40:26;;;;;;;6.13;2.70;;;32.80;62.30;;;;;;5053451;28;20048;-68
2022/06/03 10:42:57;;;;;;;6.03;2.72;;;32.70;62.80;;;;;;5052548;28;20477;-67
2022/06/03 10:45:32;;;;;;;10.07;4.53;;;32.70;62.40;;;;;;5053613;28;20048;-68
2022/06/03 10:48:00;;;;;;;5.30;2.72;;;32.10;63.20;;;;;;5051067;28;20036;-68
2022/06/03 10:50:35;;;;;;;5.25;2.72;;;31.30;64.90;;;;;;5050953;28;20069;-68
2022/06/03 11:01:45;;;;;;;6.25;3.15;;;30.10;67.00;;;;;;5052898;28;20483;-68
2022/06/03 11:04:50;;;;;;;6.68;3.22;;;29.60;67.60;;;;;;5047581;28;20036;-67
2022/06/03 11:07:30;;;;;;;6.10;3.65;;;28.00;70.70;;;;;;5035910;28;20033;-68
2022/06/03 11:10:15;;;;;;;7.30;3.40;;;27.20;72.80;;;;;;5046859;28;20056;-68
2022/06/03 11:12:43;;;;;;;6.07;3.55;;;26.80;73.60;;;;;;5055597;28;20028;-67
2022/06/03 11:15:35;;;;;;;6.03;3.60;;;26.50;74.50;;;;;;5056536;28;20052;-67
2022/06/03 11:18:24;;;;;;;6.72;3.15;;;26.20;75.60;;;;;;5057099;28;20036;-68
2022/06/03 11:20:52;;;;;;;6.32;3.30;;;25.80;77.50;;;;;;5055473;28;20143;-68
2022/06/03 11:23:19;;;;;;;5.82;3.80;;;25.50;78.20;;;;;;5056414;28;20037;-68
2022/06/03 11:25:53;;;;;;;5.78;3.70;;;25.60;78.30;;;;;;5055815;28;20036;-68
2022/06/03 11:28:41;;;;;;;8.05;4.32;;;25.80;78.40;;;;;;5056295;28;20422;-68
2022/06/03 11:31:22;;;;;;;7.53;3.63;;;26.70;78.80;;;;;;5052243;28;20020;-67
2022/06/03 11:33:50;;;;;;;9.05;4.38;;;27.20;79.80;;;;;;5053838;28;20495;-67
2022/06/03 11:36:25;;;;;;;6.47;3.75;;;27.30;79.00;;;;;;5053531;28;20036;-68
2022/06/03 11:39:09;;;;;;;6.03;3.80;;;27.00;78.70;;;;;;5049449;28;20361;-67
2022/06/03 11:41:50;;;;;;;6.68;3.67;;;27.20;78.00;;;;;;5053784;28;20041;-68
2022/06/03 11:44:36;;;;;;;6.10;3.58;;;27.50;75.80;;;;;;5046390;28;20069;-68
2022/06/03 11:47:15;;;;;;;6.00;3.70;;;27.90;72.40;;;;;;5053619;28;20136;-68
2022/06/03 11:49:42;;;;;;;6.72;3.65;;;27.80;72.80;;;;;;5054375;28;20036;-68
2022/06/03 11:52:09;;;;;;;6.85;3.80;;;27.90;73.20;;;;;;5049277;28;20854;-68
2022/06/03 11:54:39;;;;;;;5.40;3.10;;;27.80;72.10;;;;;;5052615;28;20037;-68
2022/06/03 11:57:07;;;;;;;6.82;3.63;;;27.70;73.50;;;;;;5054462;28;20112;-67
2022/06/03 11:59:52;;;;;;;6.72;3.72;;;27.20;73.60;;;;;;5056474;28;20020;-68
2022/06/03 12:02:29;;;;;;;6.10;3.83;;;26.80;75.10;;;;;;5054216;28;20041;-67
2022/06/03 12:05:16;;;;;;;7.50;3.80;;;26.40;76.20;;;;;;5052277;28;20028;-67
2022/06/03 12:08:11;;;;;;;5.45;3.78;;;26.00;76.20;;;;;;5052004;28;20414;-68
2022/06/03 12:11:09;;;;;;;6.35;3.33;;;25.90;79.60;;;;;;5055908;28;20429;-69
2022/06/03 12:13:36;;;;;;;5.85;3.63;;;26.10;79.90;;;;;;5051729;28;20091;-69
2022/06/03 12:16:16;;;;;;;6.10;3.60;;;26.40;77.80;;;;;;5050467;28;20453;-69
2022/06/03 12:19:03;;;;;;;6.47;3.97;;;26.80;78.40;;;;;;5042712;28;20057;-69
2022/06/03 12:21:35;;;;;;;7.93;3.35;;;27.10;76.60;;;;;;5056932;28;20013;-68
2022/06/03 12:24:32;;;;;;;5.28;3.08;;;27.20;77.20;;;;;;5055612;28;20039;-68
2022/06/03 12:27:03;;;;;;;5.80;3.30;;;27.30;75.70;;;;;;5055661;28;20052;-68
2022/06/03 12:29:37;;;;;;;6.55;3.97;;;27.00;76.20;;;;;;5054262;28;20064;-68
2022/06/03 12:32:28;;;;;;;;;;;26.50;76.90;;;;;;5054929;28;20460;-68
2022/06/03 12:35:34;;;;;;;7.72;3.60;;;26.10;77.70;;;;;;5056181;28;19966;-68
2022/06/03 12:38:19;;;;;;;7.65;3.80;;;25.70;80.90;;;;;;5053628;28;20033;-68
2022/06/03 12:40:53;;;;;;;8.75;4.43;;;25.10;85.10;;;;;;5055597;28;20080;-68
2022/06/03 12:43:29;;;;;;;7.68;4.53;;;24.60;84.40;;;;;;5054147;28;20087;-68
2022/06/03 12:46:02;;;;;;;6.95;4.55;;;23.90;89.40;;;;;;5056182;28;20422;-68
2022/06/03 12:48:44;;;;;;;7.38;5.00;;;23.30;91.30;;;;;;5055321;28;20086;-68
2022/06/03 12:51:26;;;;;;;7.38;5.38;;;22.80;92.40;;;;;;5055987;28;20033;-68
2022/06/03 12:54:17;;;;;;;9.93;5.28;;;22.60;93.10;;;;;;5036076;28;20330;-69
2022/06/03 12:56:55;;;;;;;10.10;5.82;;;22.60;94.20;;;;;;5052592;28;20025;-69
2022/06/03 12:59:41;;;;;;;6.40;4.72;;;22.90;94.50;;;;;;5053350;28;20081;-69
2022/06/03 13:02:24;;;;;;;8.43;5.38;;;23.40;95.50;;;;;;5055068;28;20033;-69
2022/06/03 13:05:23;;;;;;;7.30;4.43;;;23.60;94.30;;;;;;5054815;28;20033;-69
2022/06/03 13:08:09;;;;;;;7.60;4.90;;;23.60;92.40;;;;;;5053423;28;20069;-69
2022/06/03 13:11:03;;;;;;;7.07;4.60;;;23.60;92.50;;;;;;5055750;28;20457;-69
2022/06/03 13:13:29;;;;;;;10.25;5.65;;;23.50;93.80;;;;;;5051654;28;20039;-69
2022/06/03 13:16:20;;;;;;;9.07;5.30;;;23.20;95.10;;;;;;5055809;28;20021;-68
2022/06/03 13:18:52;;;;;;;7.45;5.60;;;22.90;94.80;;;;;;5053699;28;20075;-69
2022/06/03 13:21:24;;;;;;;7.00;5.35;;;22.60;94.40;;;;;;5055328;28;20013;-68
2022/06/03 13:23:51;;;;;;;8.48;5.22;;;22.40;94.80;;;;;;5054477;28;20060;-68
2022/06/03 13:26:26;;;;;;;16.40;8.93;;;22.20;94.90;;;;;;5055469;28;20025;-68
2022/06/03 13:29:07;;;;;;;10.82;5.97;;;22.20;94.30;;;;;;5050160;28;20448;-68
2022/06/03 13:31:42;;;;;;;22.38;11.57;;;22.20;94.20;;;;;;5054385;28;20041;-68
2022/06/03 13:34:11;;;;;;;27.92;14.55;;;22.20;94.60;;;;;;5055294;28;20036;-68
2022/06/03 13:36:50;;;;;;;32.28;15.25;;;22.20;96.00;;;;;;5054054;28;20114;-69
2022/06/03 13:39:28;;;;;;;8.95;6.68;;;22.20;95.40;;;;;;5054966;28;20025;-69
2022/06/03 13:45:19;;;;;;;9.27;5.20;;;22.40;95.10;;;;;;5055309;28;20082;-68
2022/06/03 13:47:56;;;;;;;23.55;11.35;;;22.50;95.20;;;;;;5049357;28;20021;-68
2022/06/03 13:50:27;;;;;;;8.27;5.25;;;22.60;95.50;;;;;;5054095;28;20327;-68
2022/06/03 13:53:21;;;;;;;7.40;5.72;;;22.60;95.00;;;;;;5054614;28;20032;-68
2022/06/03 13:55:55;;;;;;;10.52;6.72;;;22.60;95.30;;;;;;5053805;28;20056;-69
2022/06/03 13:58:37;;;;;;;8.90;5.38;;;22.50;96.20;;;;;;5051931;28;20138;-68
2022/06/03 14:01:22;;;;;;;16.23;5.00;;;22.30;95.10;;;;;;5051709;28;20056;-68
2022/06/03 14:04:06;;;;;;;8.63;4.72;;;22.00;95.50;;;;;;5044572;28;20029;-68
2022/06/03 14:06:39;;;;;;;8.75;5.90;;;21.70;95.30;;;;;;5053627;28;20115;-68
2022/06/03 14:09:45;;;;;;;11.32;6.15;;;21.50;95.40;;;;;;5053893;28;20029;-68
2022/06/03 14:12:26;;;;;;;8.15;5.32;;;21.30;95.10;;;;;;5051167;28;20047;-68
2022/06/03 14:15:44;;;;;;;8.45;5.65;;;21.20;94.70;;;;;;5046796;28;20098;-69
2022/06/03 14:18:10;;;;;;;9.77;6.78;;;20.90;94.20;;;;;;5044205;28;20041;-68
2022/06/03 14:20:49;;;;;;;9.85;6.38;;;20.60;93.30;;;;;;5051237;28;20119;-68
2022/06/03 14:23:38;;;;;;;8.75;6.45;;;20.30;92.70;;;;;;5049093;28;20013;-68
2022/06/03 14:26:15;;;;;;;10.30;6.20;;;20.40;91.70;;;;;;5050375;28;20057;-69
2022/06/03 14:29:01;;;;;;;10.07;6.20;;;20.60;92.10;;;;;;5053429;28;20028;-69
2022/06/03 14:32:08;;;;;;;8.70;5.25;;;20.90;93.40;;;;;;5053720;28;20392;-68
2022/06/03 14:35:02;;;;;;;8.60;4.70;;;21.00;95.20;;;;;;5052234;28;20032;-68